Cimarron, CO (81220)

3:48 AM MDT on April 28, 2017 (GMT -0600)
none | | Change Station

Elev 6955 ft 38.63 °N, 107.58 °W | Updated 4 seconds ago

Partly Cloudy
Partly Cloudy
29.7 °F
Feels Like 21 °F
N
9.8
Wind Variable Wind from SE
Gusts 12.3 mph

Today
High -- | Low -- °F
--% Chance of Precip.
Yesterday
High -- | Low -- °F
Precip. -- in
Pressure 29.65 in
Visibility 10.0 miles
Clouds Clear
Windchill 21 °F
Dew Point 22 °F
Humidity 74%
Rainfall 0.00 in
Snow Depth Not available.
6:16 AM 7:59 PM
Waxing Crescent, 5% visible
METAR KMTJ 280853Z AUTO 28006KT 10SM CLR 01/M08 A2977 RMK AO2 SLP040 T00111078 58001
Pressure 29.65 in
Visibility 10.0 miles
Clouds Clear
Windchill 21 °F
Dew Point 22 °F
Humidity 74%
Rainfall 0.00 in
Snow Depth Not available.
6:16 AM 7:59 PM
Waxing Crescent, 5% visible
METAR KMTJ 280853Z AUTO 28006KT 10SM CLR 01/M08 A2977 RMK AO2 SLP040 T00111078 58001

Get Severe Weather Alerts

Thanks for signing up!

Be on the lookout for a verification email in your inbox.

You'll start receiving the daily forecast at 8 AM.

×

10-Day Weather Forecast

Almanac

Astronomy

Apr. 28, 2017 Rise Set
Actual Time
Civil Twilight
Nautical Twilight
Astronomical Twilight
Moon
Length of Visible Light
Length of Day
Tomorrow will be .
, % of the Moon is Illuminated

Today's Extremes

State Highs State Lows

Community

WunderPhotos

WunderBlog® & News

Nearby

Air Quality

  Air Quality AQ Index Pollutant
Not available.

Snow Depth

Station Depth Elevation

Earthquake Activity

City Distance Mag. Time & Date
Minimum magnitude displayed is 2.5.

Coastal Water Temperatures

Place Temperature

Stations

Nearby Weather Stations

Station Location Temp. Windchill Dew Point Humidity Wind Precip. Elev Updated Type
                   

Watches & Warnings

There are currently no watches in effect.